Terminal Aerodrome Forecast
Issued by NWS

Home | Current Version | Previous Version | Text Only | Print | Product List | Glossary On
Versions: 1 2 3 4 5 6 7 8 9 10 11 12 13 14 15 16 17 18 19 20 21 22 23
000
FTUS45 KREV 041733
TAFRNO
TAF
KRNO 041733Z 0418/0518 22009G18KT P6SM FEW070 FEW200
     FM042000 24024G36KT P6SM FEW070 SCT200
     FM050000 27017G27KT P6SM SCT200
     FM050400 29010KT P6SM SKC
     FM050800 VRB04KT P6SM SKC=

USA.gov is the U.S. government's official web portal to all federal, state and local government web resources and services.